< < Back
Terminal Aerodrome Forecast


Current Version              Previous Versions:   1  2  3  4  5  6  7  8  9  

Terminal Aerodrome Forecast

065
FTUS42 KFFC 020500 RRA
TAFMCN
TAF
KMCN 020543Z 0206/0306 00000KT P6SM SCT150 SCT250
      TEMPO 0209/0213 3SM BR
     FM021400 VRB03KT P6SM SCT030 SCT150
     FM021800 VRB05KT P6SM BKN050 PROB30 0219/0223 VRB15G30KT 5SM
      TSRA BKN045CB
     FM030200 00000KT P6SM SCT050 BKN120=

Latest METAR

291
SAUS80 KWBC 020900
MTRMCN
METAR KMCN 020853Z AUTO 00000KT 10SM CLR 22/22 A3005 RMK AO2 SLP169
T02220222 55010 TSNO


USA.gov is the U.S. government's official web portal to all federal, state and local government web resources and services.